createdAt,value
2019-04-27T00:00:49.825Z,0.00
2019-04-27T00:01:49.805Z,0.00
2019-04-27T00:02:49.788Z,0.00
2019-04-27T00:03:49.774Z,0.00
2019-04-27T00:04:52.857Z,0.00
2019-04-27T00:05:49.737Z,0.00
2019-04-27T00:06:49.721Z,0.00
2019-04-27T00:07:51.411Z,0.00
2019-04-27T00:08:49.691Z,0.00
2019-04-27T00:09:51.266Z,0.00
2019-04-27T00:10:49.657Z,0.00
2019-04-27T00:11:49.637Z,0.00
2019-04-27T00:12:49.619Z,0.00
2019-04-27T00:13:49.613Z,0.00
2019-04-27T00:14:54.444Z,0.00
2019-04-27T00:15:49.575Z,0.00
2019-04-27T00:16:50.799Z,0.00
2019-04-27T00:17:49.696Z,0.00
2019-04-27T00:18:53.755Z,0.00
2019-04-27T00:19:49.507Z,0.00
2019-04-27T00:20:49.494Z,0.00
2019-04-27T00:21:49.466Z,0.00
2019-04-27T00:22:49.459Z,0.00
2019-04-27T00:23:49.440Z,0.00
2019-04-27T00:24:49.422Z,0.00
2019-04-27T00:25:49.406Z,0.00
2019-04-27T00:26:49.394Z,0.00
2019-04-27T00:27:49.376Z,0.00
2019-04-27T00:28:49.360Z,0.00
2019-04-27T00:29:49.341Z,0.00
2019-04-27T00:30:49.321Z,0.00
2019-04-27T00:31:49.309Z,0.00
2019-04-27T00:32:49.296Z,0.00
2019-04-27T00:33:49.285Z,0.00
2019-04-27T00:34:49.265Z,0.00
2019-04-27T00:35:49.252Z,0.00
2019-04-27T00:36:49.223Z,0.00
2019-04-27T00:37:49.203Z,0.00
2019-04-27T00:38:49.189Z,0.00
2019-04-27T00:39:49.196Z,0.00
2019-04-27T00:40:49.159Z,0.00
2019-04-27T00:41:49.139Z,0.00
2019-04-27T00:42:49.124Z,0.00
2019-04-27T00:43:49.113Z,0.00
2019-04-27T00:44:49.091Z,0.00
2019-04-27T00:45:49.076Z,0.00
2019-04-27T00:46:49.067Z,0.00
2019-04-27T00:47:59.113Z,0.00
2019-04-27T00:48:49.024Z,0.00
2019-04-27T00:49:49.011Z,0.00
2019-04-27T00:50:48.988Z,0.00
2019-04-27T00:51:48.981Z,0.00
2019-04-27T00:52:48.959Z,0.00
2019-04-27T00:53:48.944Z,0.00
2019-04-27T00:54:48.924Z,0.00
2019-04-27T00:55:48.916Z,0.00
2019-04-27T00:56:48.888Z,0.00
2019-04-27T00:57:48.881Z,0.00
2019-04-27T00:58:48.860Z,0.00
2019-04-27T00:59:48.839Z,0.00
2019-04-27T01:00:48.828Z,0.00
2019-04-27T01:01:48.810Z,0.00
2019-04-27T01:02:48.795Z,0.00
2019-04-27T01:03:48.778Z,0.00
2019-04-27T01:04:48.761Z,0.00
2019-04-27T01:05:48.741Z,0.00
2019-04-27T01:06:48.731Z,0.00
2019-04-27T01:07:48.713Z,0.00
2019-04-27T01:08:48.691Z,0.00
2019-04-27T01:09:48.677Z,0.00
2019-04-27T01:10:48.654Z,0.00
2019-04-27T01:11:48.647Z,0.00
2019-04-27T01:12:48.628Z,0.00
2019-04-27T01:13:48.612Z,0.00
2019-04-27T01:14:48.594Z,0.00
2019-04-27T01:15:48.585Z,0.00
2019-04-27T01:16:49.229Z,0.00
2019-04-27T01:17:49.047Z,0.00
2019-04-27T01:18:48.936Z,0.00
2019-04-27T01:19:49.362Z,0.00
2019-04-27T01:20:48.918Z,0.00
2019-04-27T01:21:49.694Z,0.00
2019-04-27T01:22:49.250Z,0.00
2019-04-27T01:23:48.796Z,0.00
2019-04-27T01:24:49.242Z,0.00
2019-04-27T01:25:48.828Z,0.00
2019-04-27T01:26:49.945Z,0.00
2019-04-27T01:27:49.414Z,0.00
2019-04-27T01:28:49.011Z,0.00
2019-04-27T01:29:49.981Z,0.00
2019-04-27T01:30:49.008Z,0.00
2019-04-27T01:31:48.711Z,0.00
2019-04-27T01:32:49.383Z,0.00
2019-04-27T01:33:48.899Z,0.00
2019-04-27T01:34:49.411Z,0.00
2019-04-27T01:35:49.158Z,0.00
2019-04-27T01:36:49.293Z,0.00
2019-04-27T01:37:48.759Z,0.00
2019-04-27T01:38:49.663Z,0.00
2019-04-27T01:39:48.595Z,0.00
2019-04-27T01:40:49.822Z,0.00
2019-04-27T01:41:49.087Z,0.00
2019-04-27T01:42:48.417Z,0.00
2019-04-27T01:43:49.094Z,0.00
2019-04-27T01:44:50.878Z,0.00
2019-04-27T01:45:48.828Z,0.00
2019-04-27T01:46:48.711Z,0.00
2019-04-27T01:47:49.246Z,0.00
2019-04-27T01:48:49.015Z,0.00
2019-04-27T01:49:49.513Z,0.00
2019-04-27T01:50:49.201Z,0.00
2019-04-27T01:51:49.235Z,0.00
2019-04-27T01:52:48.674Z,0.00
2019-04-27T01:53:49.210Z,0.00
2019-04-27T01:54:49.481Z,0.00
2019-04-27T01:55:49.148Z,0.00
2019-04-27T01:56:49.280Z,0.00
2019-04-27T01:57:48.748Z,0.00
2019-04-27T01:58:49.404Z,0.00
2019-04-27T01:59:48.920Z,0.00
2019-04-27T02:00:49.400Z,0.00
2019-04-27T02:01:48.936Z,0.00
2019-04-27T02:02:49.382Z,0.00
2019-04-27T02:03:48.900Z,0.00
2019-04-27T02:04:49.351Z,0.00
2019-04-27T02:05:49.265Z,0.00
2019-04-27T02:06:48.724Z,0.00
2019-04-27T02:07:49.111Z,0.00
2019-04-27T02:08:49.223Z,0.00
2019-04-27T02:09:48.678Z,0.00
2019-04-27T02:10:49.530Z,0.00
2019-04-27T02:11:48.965Z,0.00
2019-04-27T02:12:48.681Z,0.00
2019-04-27T02:13:48.811Z,0.00
2019-04-27T02:14:49.100Z,0.00
2019-04-27T02:15:48.652Z,0.00
2019-04-27T02:16:49.176Z,0.00
2019-04-27T02:17:49.026Z,0.00
2019-04-27T02:18:48.884Z,0.00
2019-04-27T02:19:49.285Z,0.00
2019-04-27T02:20:49.040Z,0.00
2019-04-27T02:21:51.108Z,0.00
2019-04-27T02:22:48.514Z,0.00
2019-04-27T02:23:47.434Z,0.00
2019-04-27T02:24:49.105Z,0.00
2019-04-27T02:25:47.404Z,0.00
2019-04-27T02:26:47.385Z,0.00
2019-04-27T02:27:49.016Z,0.00
2019-04-27T02:28:47.358Z,0.00
2019-04-27T02:29:48.739Z,0.00
2019-04-27T02:30:47.320Z,0.00
2019-04-27T02:31:49.895Z,0.00
2019-04-27T02:32:49.740Z,0.00
2019-04-27T02:33:47.265Z,0.00
2019-04-27T02:34:47.257Z,0.00
2019-04-27T02:35:50.208Z,0.00
2019-04-27T02:36:47.217Z,0.00
2019-04-27T02:37:47.199Z,0.00
2019-04-27T02:38:49.111Z,0.00
2019-04-27T02:39:47.163Z,0.00
2019-04-27T02:40:49.446Z,0.00
2019-04-27T02:41:47.134Z,0.00
2019-04-27T02:42:47.125Z,0.00
2019-04-27T02:43:49.590Z,0.00
2019-04-27T02:44:49.130Z,0.00
2019-04-27T02:45:47.064Z,0.00
2019-04-27T02:46:49.940Z,0.00
2019-04-27T02:47:49.052Z,0.00
2019-04-27T02:48:58.997Z,0.00
2019-04-27T02:49:47.010Z,0.00
2019-04-27T02:50:46.983Z,0.00
2019-04-27T02:51:49.391Z,0.00
2019-04-27T02:52:46.942Z,0.00
2019-04-27T02:53:46.943Z,0.00
2019-04-27T02:54:46.909Z,0.00
2019-04-27T02:55:46.895Z,0.00
2019-04-27T02:56:46.877Z,0.00
2019-04-27T02:57:46.865Z,0.00
2019-04-27T02:58:49.360Z,0.00
2019-04-27T02:59:46.825Z,0.00
2019-04-27T03:00:46.815Z,0.00
2019-04-27T03:01:46.990Z,0.00
2019-04-27T03:02:46.774Z,0.00
2019-04-27T03:03:46.758Z,0.00
2019-04-27T03:04:46.739Z,0.00
2019-04-27T03:05:46.720Z,0.00
2019-04-27T03:06:46.711Z,0.00
2019-04-27T03:07:46.688Z,0.00
2019-04-27T03:08:50.693Z,0.00
2019-04-27T03:09:46.655Z,0.00
2019-04-27T03:10:46.645Z,0.00
2019-04-27T03:11:46.626Z,0.00
2019-04-27T03:12:46.607Z,0.00
2019-04-27T03:13:51.707Z,0.00
2019-04-27T03:14:46.573Z,0.00
2019-04-27T03:15:46.549Z,0.00
2019-04-27T03:16:46.539Z,0.00
2019-04-27T03:17:46.520Z,0.00
2019-04-27T03:18:46.504Z,0.00
2019-04-27T03:19:46.485Z,0.00
2019-04-27T03:20:46.474Z,0.00
2019-04-27T03:21:46.463Z,0.00
2019-04-27T03:22:46.446Z,0.00
2019-04-27T03:23:46.419Z,0.00
2019-04-27T03:24:46.405Z,0.00
2019-04-27T03:25:46.381Z,0.00
2019-04-27T03:26:46.365Z,0.00
2019-04-27T03:27:46.346Z,0.00
2019-04-27T03:28:46.334Z,0.00
2019-04-27T03:29:46.321Z,0.00
2019-04-27T03:30:46.307Z,0.00
2019-04-27T03:31:48.039Z,0.00
2019-04-27T03:32:46.271Z,0.00
2019-04-27T03:33:46.257Z,0.00
2019-04-27T03:34:46.228Z,0.00
2019-04-27T03:35:46.222Z,0.00
2019-04-27T03:36:46.198Z,0.00
2019-04-27T03:37:46.195Z,0.00
2019-04-27T03:38:46.164Z,0.00
2019-04-27T03:39:46.149Z,0.00
2019-04-27T03:40:46.130Z,0.00
2019-04-27T03:41:46.116Z,0.00
2019-04-27T03:42:46.094Z,0.00
2019-04-27T03:43:46.077Z,0.00
2019-04-27T03:44:46.064Z,0.00
2019-04-27T03:45:46.046Z,0.00
2019-04-27T03:46:46.024Z,0.00
2019-04-27T03:47:46.020Z,0.00
2019-04-27T03:48:46.003Z,0.00
2019-04-27T03:49:45.984Z,0.00
2019-04-27T03:50:45.960Z,0.00
2019-04-27T03:51:45.949Z,0.00
2019-04-27T03:52:45.924Z,0.00
2019-04-27T03:53:45.903Z,0.00
2019-04-27T03:54:45.892Z,0.00
2019-04-27T03:55:45.874Z,0.00
2019-04-27T03:56:45.856Z,4.00
2019-04-27T03:57:45.835Z,0.00
2019-04-27T03:58:45.840Z,0.00
2019-04-27T03:59:45.804Z,4.00
2019-04-27T04:00:45.792Z,4.00
2019-04-27T04:01:45.767Z,4.00
2019-04-27T04:02:45.756Z,4.00
2019-04-27T04:03:45.738Z,4.00
2019-04-27T04:04:45.732Z,4.00
2019-04-27T04:05:45.701Z,4.00
2019-04-27T04:06:45.682Z,8.00
2019-04-27T04:07:45.664Z,8.00
2019-04-27T04:08:45.648Z,12.00
2019-04-27T04:09:45.633Z,8.00
2019-04-27T04:10:45.615Z,12.00
2019-04-27T04:11:45.607Z,12.00
2019-04-27T04:12:45.583Z,12.00
2019-04-27T04:13:45.565Z,12.00
2019-04-27T04:14:45.546Z,16.00
2019-04-27T04:15:45.567Z,20.00
2019-04-27T04:16:45.514Z,20.00
2019-04-27T04:17:45.501Z,24.00
2019-04-27T04:18:45.478Z,24.00
2019-04-27T04:19:54.302Z,28.00
2019-04-27T04:20:45.444Z,28.00
2019-04-27T04:21:45.432Z,32.00
2019-04-27T04:22:45.417Z,36.00
2019-04-27T04:23:45.393Z,40.00
2019-04-27T04:24:45.379Z,40.00
2019-04-27T04:25:45.366Z,44.00
2019-04-27T04:26:45.346Z,48.00
2019-04-27T04:27:45.327Z,48.00
2019-04-27T04:28:45.307Z,52.00
2019-04-27T04:29:45.290Z,52.00
2019-04-27T04:30:45.275Z,52.00
2019-04-27T04:31:45.267Z,52.00
2019-04-27T04:32:45.238Z,52.00
2019-04-27T04:33:45.222Z,56.00
2019-04-27T04:34:45.207Z,60.00
2019-04-27T04:35:45.188Z,60.00
2019-04-27T04:36:45.172Z,64.00
2019-04-27T04:37:45.153Z,64.00
2019-04-27T04:38:45.137Z,64.00
2019-04-27T04:39:45.124Z,72.00
2019-04-27T04:40:45.097Z,72.00
2019-04-27T04:41:45.093Z,80.00
2019-04-27T04:42:45.067Z,84.00
2019-04-27T04:43:45.052Z,92.00
2019-04-27T04:44:45.029Z,96.00
2019-04-27T04:45:45.018Z,100.00
2019-04-27T04:46:45.008Z,104.00
2019-04-27T04:47:44.988Z,112.00
2019-04-27T04:48:44.970Z,120.00
2019-04-27T04:49:44.949Z,124.00
2019-04-27T04:50:44.941Z,128.00
2019-04-27T04:51:44.918Z,132.00
2019-04-27T04:52:44.905Z,136.00
2019-04-27T04:53:44.888Z,132.00
2019-04-27T04:54:44.873Z,132.00
2019-04-27T04:55:44.845Z,132.00
2019-04-27T04:56:44.833Z,132.00
2019-04-27T04:57:44.817Z,132.00
2019-04-27T04:58:44.801Z,132.00
2019-04-27T04:59:44.784Z,132.00
2019-04-27T05:00:44.765Z,136.00
2019-04-27T05:01:44.741Z,136.00
2019-04-27T05:02:44.758Z,136.00
2019-04-27T05:03:44.711Z,132.00
2019-04-27T05:04:44.692Z,132.00
2019-04-27T05:05:44.678Z,128.00
2019-04-27T05:06:44.658Z,132.00
2019-04-27T05:07:44.650Z,136.00
2019-04-27T05:08:44.624Z,144.00
2019-04-27T05:09:44.609Z,152.00
2019-04-27T05:10:44.590Z,164.00
2019-04-27T05:11:44.575Z,176.00
2019-04-27T05:12:44.557Z,188.00
2019-04-27T05:13:44.542Z,208.00
2019-04-27T05:14:44.522Z,216.00
2019-04-27T05:15:44.509Z,228.00
2019-04-27T05:16:44.494Z,236.00
2019-04-27T05:17:44.473Z,248.00
2019-04-27T05:18:44.458Z,252.00
2019-04-27T05:19:44.443Z,256.00
2019-04-27T05:20:44.425Z,260.00
2019-04-27T05:21:44.409Z,260.00
2019-04-27T05:22:44.399Z,260.00
2019-04-27T05:23:44.375Z,264.00
2019-04-27T05:24:44.358Z,268.00
2019-04-27T05:25:44.343Z,284.00
2019-04-27T05:26:44.324Z,308.00
2019-04-27T05:27:44.308Z,344.00
2019-04-27T05:28:44.284Z,388.00
2019-04-27T05:29:44.276Z,432.00
2019-04-27T05:30:44.255Z,468.00
2019-04-27T05:31:44.240Z,500.00
2019-04-27T05:32:44.223Z,520.00
2019-04-27T05:33:44.217Z,544.00
2019-04-27T05:34:44.195Z,576.00
2019-04-27T05:35:44.175Z,616.00
2019-04-27T05:36:48.762Z,664.00
2019-04-27T05:37:44.444Z,716.00
2019-04-27T05:38:45.932Z,760.00
2019-04-27T05:39:44.113Z,804.00
2019-04-27T05:40:44.095Z,836.00
2019-04-27T05:41:44.074Z,892.00
2019-04-27T05:42:44.064Z,944.00
2019-04-27T05:43:44.040Z,1004.00
2019-04-27T05:44:45.690Z,1060.00
2019-04-27T05:45:44.010Z,1116.00
2019-04-27T05:46:43.990Z,1156.00
2019-04-27T05:47:50.192Z,1176.00
2019-04-27T05:48:43.958Z,1188.00
2019-04-27T05:49:44.561Z,1184.00
2019-04-27T05:50:45.960Z,1184.00
2019-04-27T05:51:43.909Z,1176.00
2019-04-27T05:52:43.895Z,1156.00
2019-04-27T05:53:43.881Z,1132.00
2019-04-27T05:54:43.862Z,1116.00
2019-04-27T05:55:43.849Z,1096.00
2019-04-27T05:56:43.829Z,1080.00
2019-04-27T05:57:43.812Z,1072.00
2019-04-27T05:58:43.802Z,1068.00
2019-04-27T05:59:43.782Z,1064.00
2019-04-27T06:00:43.766Z,1076.00
2019-04-27T06:01:43.749Z,1092.00
2019-04-27T06:02:43.733Z,1116.00
2019-04-27T06:03:43.714Z,1152.00
2019-04-27T06:04:43.708Z,1200.00
2019-04-27T06:05:43.685Z,1264.00
2019-04-27T06:06:43.662Z,1352.00
2019-04-27T06:07:43.651Z,1424.00
2019-04-27T06:08:43.636Z,1476.00
2019-04-27T06:09:43.625Z,1516.00
2019-04-27T06:10:43.603Z,1548.00
2019-04-27T06:11:43.590Z,1584.00
2019-04-27T06:12:43.570Z,1604.00
2019-04-27T06:13:43.549Z,1628.00
2019-04-27T06:14:43.531Z,1644.00
2019-04-27T06:15:43.522Z,1648.00
2019-04-27T06:16:43.505Z,1612.00
2019-04-27T06:17:43.488Z,1560.00
2019-04-27T06:18:43.470Z,1508.00
2019-04-27T06:19:43.957Z,1460.00
2019-04-27T06:20:53.450Z,1416.00
2019-04-27T06:21:43.419Z,1388.00
2019-04-27T06:22:43.413Z,1392.00
2019-04-27T06:23:43.387Z,1388.00
2019-04-27T06:24:43.380Z,1388.00
2019-04-27T06:25:43.358Z,1396.00
2019-04-27T06:26:43.345Z,1404.00
2019-04-27T06:27:43.327Z,1424.00
2019-04-27T06:28:43.308Z,1456.00
2019-04-27T06:29:43.296Z,1480.00
2019-04-27T06:30:43.278Z,1496.00
2019-04-27T06:31:43.280Z,1476.00
2019-04-27T06:32:43.240Z,1476.00
2019-04-27T06:33:43.229Z,1484.00
2019-04-27T06:34:43.222Z,1532.00
2019-04-27T06:35:43.199Z,1512.00
2019-04-27T06:36:43.178Z,1536.00
2019-04-27T06:37:43.171Z,1588.00
2019-04-27T06:38:43.149Z,1532.00
2019-04-27T06:39:43.129Z,1516.00
2019-04-27T06:40:43.118Z,1512.00
2019-04-27T06:41:43.099Z,1496.00
2019-04-27T06:42:43.085Z,1492.00
2019-04-27T06:43:43.067Z,1496.00
2019-04-27T06:44:43.049Z,1500.00
2019-04-27T06:45:43.041Z,1500.00
2019-04-27T06:46:43.028Z,1492.00
2019-04-27T06:47:43.007Z,1468.00
2019-04-27T06:48:43.000Z,1436.00
2019-04-27T06:49:42.972Z,1372.00
2019-04-27T06:50:42.960Z,1296.00
2019-04-27T06:51:42.946Z,1220.00
2019-04-27T06:52:42.930Z,1156.00
2019-04-27T06:53:42.907Z,1120.00
2019-04-27T06:54:42.893Z,1124.00
2019-04-27T06:55:42.883Z,1144.00
2019-04-27T06:56:42.864Z,1172.00
2019-04-27T06:57:42.855Z,1172.00
2019-04-27T06:58:42.833Z,1172.00
2019-04-27T06:59:42.813Z,1188.00
2019-04-27T07:00:42.801Z,1224.00
2019-04-27T07:01:42.784Z,1240.00
2019-04-27T07:02:42.770Z,1244.00
2019-04-27T07:03:42.753Z,1240.00
2019-04-27T07:04:42.742Z,1228.00
2019-04-27T07:05:42.721Z,1204.00
2019-04-27T07:06:53.271Z,1180.00
2019-04-27T07:07:42.692Z,1172.00
2019-04-27T07:08:42.678Z,1176.00
2019-04-27T07:09:42.659Z,1208.00
2019-04-27T07:10:42.646Z,1236.00
2019-04-27T07:11:42.630Z,1268.00
2019-04-27T07:12:42.608Z,1296.00
2019-04-27T07:13:42.601Z,1324.00
2019-04-27T07:14:52.371Z,1340.00
2019-04-27T07:15:42.566Z,1356.00
2019-04-27T07:16:42.550Z,1364.00
2019-04-27T07:17:42.533Z,1372.00
2019-04-27T07:18:42.516Z,1384.00
2019-04-27T07:19:42.501Z,1400.00
2019-04-27T07:20:42.486Z,1420.00
2019-04-27T07:21:42.469Z,1452.00
2019-04-27T07:22:42.459Z,1500.00
2019-04-27T07:23:42.441Z,1576.00
2019-04-27T07:24:42.427Z,1684.00
2019-04-27T07:25:42.412Z,1816.00
2019-04-27T07:26:42.398Z,1964.00
2019-04-27T07:27:42.381Z,2144.00
2019-04-27T07:28:42.362Z,2348.00
2019-04-27T07:29:44.591Z,2508.00
2019-04-27T07:30:42.330Z,2600.00
2019-04-27T07:31:42.318Z,2676.00
2019-04-27T07:32:42.296Z,2760.00
2019-04-27T07:33:42.288Z,2744.00
2019-04-27T07:34:42.268Z,2672.00
2019-04-27T07:35:42.259Z,2636.00
2019-04-27T07:36:42.237Z,2612.00
2019-04-27T07:37:42.229Z,2584.00
2019-04-27T07:38:42.219Z,2532.00
2019-04-27T07:39:42.194Z,2464.00
2019-04-27T07:40:42.191Z,2412.00
2019-04-27T07:41:42.165Z,2380.00
2019-04-27T07:42:42.151Z,2392.00
2019-04-27T07:43:42.135Z,2424.00
2019-04-27T07:44:42.121Z,2464.00
2019-04-27T07:45:42.121Z,2524.00
2019-04-27T07:46:42.088Z,2608.00
2019-04-27T07:47:42.083Z,2712.00
2019-04-27T07:48:42.063Z,2684.00
2019-04-27T07:49:42.048Z,2704.00
2019-04-27T07:50:42.032Z,2736.00
2019-04-27T07:51:42.017Z,2832.00
2019-04-27T07:52:42.002Z,2976.00
2019-04-27T07:53:41.977Z,3004.00
2019-04-27T07:54:41.977Z,3396.00
2019-04-27T07:55:41.959Z,3388.00
2019-04-27T07:56:41.939Z,3124.00
2019-04-27T07:57:41.926Z,3032.00
2019-04-27T07:58:41.912Z,3040.00
2019-04-27T07:59:42.217Z,3052.00
2019-04-27T08:00:41.879Z,3100.00
2019-04-27T08:01:41.869Z,3524.00
2019-04-27T08:02:41.862Z,3048.00
2019-04-27T08:03:41.838Z,2896.00
2019-04-27T08:04:41.830Z,2796.00
2019-04-27T08:05:41.806Z,2800.00
2019-04-27T08:06:41.805Z,2868.00
2019-04-27T08:07:41.777Z,2936.00
2019-04-27T08:08:41.767Z,2924.00
2019-04-27T08:09:41.751Z,2904.00
2019-04-27T08:10:41.735Z,2860.00
2019-04-27T08:11:41.723Z,2816.00
2019-04-27T08:12:41.702Z,2968.00
2019-04-27T08:13:41.695Z,2792.00
2019-04-27T08:14:41.681Z,2720.00
2019-04-27T08:15:41.665Z,2612.00
2019-04-27T08:16:41.651Z,2600.00
2019-04-27T08:17:42.925Z,3500.00
2019-04-27T08:18:41.628Z,3544.00
2019-04-27T08:19:41.606Z,3768.00
2019-04-27T08:20:41.600Z,3868.00
2019-04-27T08:21:44.503Z,3508.00
2019-04-27T08:22:41.563Z,3268.00
2019-04-27T08:23:41.559Z,3184.00
2019-04-27T08:24:41.530Z,2720.00
2019-04-27T08:25:41.523Z,2576.00
2019-04-27T08:26:41.514Z,2708.00
2019-04-27T08:27:41.493Z,3164.00
2019-04-27T08:28:41.501Z,2884.00
2019-04-27T08:29:41.467Z,3128.00
2019-04-27T08:30:41.456Z,2604.00
2019-04-27T08:31:41.436Z,2524.00
2019-04-27T08:32:41.661Z,2744.00
2019-04-27T08:33:41.403Z,4956.00
2019-04-27T08:34:41.390Z,3832.00
2019-04-27T08:35:41.380Z,3336.00
2019-04-27T08:36:41.356Z,4076.00
2019-04-27T08:37:41.349Z,3600.00
2019-04-27T08:38:41.339Z,3936.00
2019-04-27T08:39:41.324Z,3728.00
2019-04-27T08:40:41.314Z,4128.00
2019-04-27T08:41:41.291Z,4632.00
2019-04-27T08:42:41.286Z,4128.00
2019-04-27T08:43:41.260Z,4808.00
2019-04-27T08:44:41.256Z,4736.00
2019-04-27T08:45:41.243Z,4464.00
2019-04-27T08:46:41.224Z,4604.00
2019-04-27T08:47:41.742Z,4372.00
2019-04-27T08:48:41.198Z,3696.00
2019-04-27T08:49:41.184Z,3280.00
2019-04-27T08:50:42.139Z,3592.00
2019-04-27T08:51:41.583Z,4016.00
2019-04-27T08:52:41.821Z,4056.00
2019-04-27T08:53:41.149Z,4260.00
2019-04-27T08:54:41.119Z,4388.00
2019-04-27T08:55:41.099Z,4100.00
2019-04-27T08:56:41.087Z,4656.00
2019-04-27T08:57:41.077Z,4468.00
2019-04-27T08:58:41.064Z,3136.00
2019-04-27T08:59:41.049Z,2848.00
2019-04-27T09:00:41.033Z,2704.00
2019-04-27T09:01:41.019Z,2584.00
2019-04-27T09:02:46.751Z,2516.00
2019-04-27T09:03:40.996Z,2504.00
2019-04-27T09:04:40.978Z,2540.00
2019-04-27T09:05:40.978Z,2624.00
2019-04-27T09:06:40.955Z,2768.00
2019-04-27T09:07:40.939Z,2992.00
2019-04-27T09:08:41.256Z,3224.00
2019-04-27T09:09:40.909Z,3148.00
2019-04-27T09:10:40.899Z,3184.00
2019-04-27T09:11:40.885Z,3220.00
2019-04-27T09:12:41.549Z,3276.00
2019-04-27T09:13:41.294Z,3240.00
2019-04-27T09:14:40.885Z,4016.00
2019-04-27T09:15:40.849Z,3764.00
2019-04-27T09:16:40.816Z,3468.00
2019-04-27T09:17:40.823Z,3404.00
2019-04-27T09:18:41.113Z,3480.00
2019-04-27T09:19:40.821Z,3040.00
2019-04-27T09:20:40.760Z,2856.00
2019-04-27T09:21:40.757Z,2904.00
2019-04-27T09:22:40.727Z,3688.00
2019-04-27T09:23:40.731Z,4132.00
2019-04-27T09:24:40.719Z,3396.00
2019-04-27T09:25:47.203Z,4156.00
2019-04-27T09:26:40.678Z,3532.00
2019-04-27T09:27:40.666Z,3872.00
2019-04-27T09:28:40.657Z,3388.00
2019-04-27T09:29:40.636Z,3620.00
2019-04-27T09:30:40.629Z,3388.00
2019-04-27T09:31:40.621Z,4584.00
2019-04-27T09:32:40.759Z,3768.00
2019-04-27T09:33:40.584Z,3792.00
2019-04-27T09:34:40.568Z,3660.00
2019-04-27T09:35:40.554Z,3844.00
2019-04-27T09:36:40.548Z,4296.00
2019-04-27T09:37:40.524Z,4020.00
2019-04-27T09:38:40.518Z,3892.00
2019-04-27T09:39:40.501Z,3508.00
2019-04-27T09:40:40.491Z,2864.00
2019-04-27T09:41:40.481Z,2552.00
2019-04-27T09:42:40.472Z,2496.00
2019-04-27T09:43:40.456Z,2504.00
2019-04-27T09:44:40.449Z,2544.00
2019-04-27T09:45:40.420Z,2540.00
2019-04-27T09:46:40.416Z,2416.00
2019-04-27T09:47:40.553Z,2304.00
2019-04-27T09:48:40.385Z,2160.00
2019-04-27T09:49:40.375Z,2100.00
2019-04-27T09:50:40.358Z,2072.00
2019-04-27T09:51:40.345Z,2052.00
2019-04-27T09:52:40.328Z,2036.00
2019-04-27T09:53:40.317Z,2028.00
2019-04-27T09:54:40.308Z,2024.00
2019-04-27T09:55:40.293Z,1996.00
2019-04-27T09:56:40.278Z,1988.00
2019-04-27T09:57:40.267Z,2024.00
2019-04-27T09:58:40.258Z,2080.00
2019-04-27T09:59:40.250Z,2136.00
2019-04-27T10:00:40.230Z,2144.00
2019-04-27T10:01:40.218Z,2352.00
2019-04-27T10:02:40.200Z,2092.00
2019-04-27T10:03:40.192Z,1928.00
2019-04-27T10:04:40.172Z,1872.00
2019-04-27T10:05:40.161Z,1872.00
2019-04-27T10:06:40.149Z,1928.00
2019-04-27T10:07:40.137Z,2328.00
2019-04-27T10:08:40.122Z,2064.00
2019-04-27T10:09:40.112Z,2060.00
2019-04-27T10:10:40.096Z,2132.00
2019-04-27T10:11:40.080Z,2280.00
2019-04-27T10:12:40.066Z,4412.00
2019-04-27T10:13:40.065Z,3588.00
2019-04-27T10:14:40.053Z,2816.00
2019-04-27T10:15:40.033Z,2448.00
2019-04-27T10:16:40.022Z,2748.00
2019-04-27T10:17:40.006Z,2740.00
2019-04-27T10:18:39.991Z,2608.00
2019-04-27T10:19:39.983Z,2456.00
2019-04-27T10:20:41.042Z,2400.00
2019-04-27T10:21:39.949Z,2976.00
2019-04-27T10:22:43.339Z,2480.00
2019-04-27T10:23:39.916Z,2240.00
2019-04-27T10:24:39.911Z,2068.00
2019-04-27T10:25:39.896Z,1980.00
2019-04-27T10:26:39.881Z,1968.00
2019-04-27T10:27:39.871Z,1892.00
2019-04-27T10:28:39.858Z,1804.00
2019-04-27T10:29:39.845Z,1720.00
2019-04-27T10:30:39.827Z,1648.00
2019-04-27T10:31:39.815Z,1616.00
2019-04-27T10:32:42.688Z,1628.00
2019-04-27T10:33:39.794Z,1676.00
2019-04-27T10:34:39.772Z,1692.00
2019-04-27T10:35:39.781Z,1652.00
2019-04-27T10:36:39.752Z,1620.00
2019-04-27T10:37:39.735Z,1708.00
2019-04-27T10:38:39.727Z,1572.00
2019-04-27T10:39:39.713Z,1484.00
2019-04-27T10:40:39.695Z,1380.00
2019-04-27T10:41:39.684Z,1292.00
2019-04-27T10:42:39.676Z,1216.00
2019-04-27T10:43:39.660Z,1176.00
2019-04-27T10:44:39.643Z,1160.00
2019-04-27T10:45:39.635Z,1156.00
2019-04-27T10:46:39.616Z,1160.00
2019-04-27T10:47:39.611Z,1164.00
2019-04-27T10:48:39.590Z,1164.00
2019-04-27T10:49:39.577Z,1152.00
2019-04-27T10:50:39.577Z,1180.00
2019-04-27T10:51:39.553Z,1192.00
2019-04-27T10:52:52.619Z,1192.00
2019-04-27T10:53:39.527Z,1204.00
2019-04-27T10:54:39.507Z,1216.00
2019-04-27T10:55:39.500Z,1248.00
2019-04-27T10:56:39.481Z,1512.00
2019-04-27T10:57:39.469Z,1472.00
2019-04-27T10:58:39.465Z,1320.00
2019-04-27T10:59:39.447Z,1288.00
2019-04-27T11:00:39.433Z,1208.00
2019-04-27T11:01:39.418Z,1196.00
2019-04-27T11:02:39.401Z,1172.00
2019-04-27T11:03:39.395Z,1172.00
2019-04-27T11:04:39.374Z,1172.00
2019-04-27T11:05:39.372Z,1172.00
2019-04-27T11:06:39.351Z,1188.00
2019-04-27T11:07:39.341Z,1196.00
2019-04-27T11:08:39.324Z,1168.00
2019-04-27T11:09:39.307Z,1036.00
2019-04-27T11:10:39.303Z,956.00
2019-04-27T11:11:39.281Z,916.00
2019-04-27T11:12:39.270Z,872.00
2019-04-27T11:13:39.256Z,844.00
2019-04-27T11:14:39.235Z,828.00
2019-04-27T11:15:39.231Z,828.00
2019-04-27T11:16:39.211Z,836.00
2019-04-27T11:17:39.201Z,848.00
2019-04-27T11:18:39.191Z,856.00
2019-04-27T11:19:39.175Z,856.00
2019-04-27T11:20:39.157Z,852.00
2019-04-27T11:21:39.147Z,852.00
2019-04-27T11:22:39.138Z,856.00
2019-04-27T11:23:39.123Z,868.00
2019-04-27T11:24:39.107Z,888.00
2019-04-27T11:25:39.097Z,904.00
2019-04-27T11:26:39.077Z,908.00
2019-04-27T11:27:39.067Z,904.00
2019-04-27T11:28:39.052Z,904.00
2019-04-27T11:29:39.034Z,908.00
2019-04-27T11:30:39.023Z,912.00
2019-04-27T11:31:39.009Z,924.00
2019-04-27T11:32:38.997Z,940.00
2019-04-27T11:33:38.985Z,956.00
2019-04-27T11:34:38.969Z,968.00
2019-04-27T11:35:38.953Z,980.00
2019-04-27T11:36:38.939Z,988.00
2019-04-27T11:37:38.927Z,988.00
2019-04-27T11:38:38.915Z,988.00
2019-04-27T11:39:38.900Z,968.00
2019-04-27T11:40:38.889Z,940.00
2019-04-27T11:41:38.869Z,912.00
2019-04-27T11:42:38.863Z,876.00
2019-04-27T11:43:38.849Z,840.00
2019-04-27T11:44:38.831Z,804.00
2019-04-27T11:45:38.817Z,764.00
2019-04-27T11:46:38.800Z,732.00
2019-04-27T11:47:38.793Z,708.00
2019-04-27T11:48:38.773Z,692.00
2019-04-27T11:49:38.763Z,684.00
2019-04-27T11:50:38.750Z,668.00
2019-04-27T11:51:38.732Z,648.00
2019-04-27T11:52:38.719Z,632.00
2019-04-27T11:53:38.709Z,608.00
2019-04-27T11:54:38.689Z,584.00
2019-04-27T11:55:38.682Z,564.00
2019-04-27T11:56:38.667Z,548.00
2019-04-27T11:57:38.655Z,536.00
2019-04-27T11:58:38.644Z,528.00
2019-04-27T11:59:38.630Z,528.00
2019-04-27T12:00:38.616Z,524.00
2019-04-27T12:01:38.617Z,524.00
2019-04-27T12:02:38.583Z,524.00
2019-04-27T12:03:38.577Z,520.00
2019-04-27T12:04:38.565Z,516.00
2019-04-27T12:05:38.543Z,512.00
2019-04-27T12:06:38.541Z,516.00
2019-04-27T12:07:38.525Z,524.00
2019-04-27T12:08:38.511Z,536.00
2019-04-27T12:09:38.493Z,540.00
2019-04-27T12:10:38.478Z,544.00
2019-04-27T12:11:38.478Z,544.00
2019-04-27T12:12:38.453Z,536.00
2019-04-27T12:13:38.437Z,532.00
2019-04-27T12:14:38.422Z,524.00
2019-04-27T12:15:38.411Z,520.00
2019-04-27T12:16:38.405Z,516.00
2019-04-27T12:17:38.380Z,512.00
2019-04-27T12:18:38.364Z,508.00
2019-04-27T12:19:38.359Z,508.00
2019-04-27T12:20:38.337Z,508.00
2019-04-27T12:21:38.327Z,508.00
2019-04-27T12:22:38.309Z,512.00
2019-04-27T12:23:41.235Z,520.00
2019-04-27T12:24:38.285Z,528.00
2019-04-27T12:25:38.273Z,536.00
2019-04-27T12:26:38.254Z,552.00
2019-04-27T12:27:38.243Z,564.00
2019-04-27T12:28:38.231Z,576.00
2019-04-27T12:29:38.220Z,584.00
2019-04-27T12:30:38.201Z,588.00
2019-04-27T12:31:38.184Z,588.00
2019-04-27T12:32:38.173Z,588.00
2019-04-27T12:33:38.170Z,584.00
2019-04-27T12:34:38.144Z,580.00